sensor_id;sensor_type;location;lat;lon;timestamp;temperature;humidity
33803;DHT22;20110;53.120;5.786;2023-08-07T00:00:47;13.10;99.90
33803;DHT22;20110;53.120;5.786;2023-08-07T00:03:15;13.10;99.90
33803;DHT22;20110;53.120;5.786;2023-08-07T00:05:48;13.10;99.90
33803;DHT22;20110;53.120;5.786;2023-08-07T00:08:14;13.10;99.90
33803;DHT22;20110;53.120;5.786;2023-08-07T00:10:40;13.00;99.90
33803;DHT22;20110;53.120;5.786;2023-08-07T00:13:06;13.00;99.90
33803;DHT22;20110;53.120;5.786;2023-08-07T00:15:32;13.00;99.90
33803;DHT22;20110;53.120;5.786;2023-08-07T00:17:59;13.10;99.90
33803;DHT22;20110;53.120;5.786;2023-08-07T00:20:25;13.10;99.90
33803;DHT22;20110;53.120;5.786;2023-08-07T00:22:51;13.10;99.90
33803;DHT22;20110;53.120;5.786;2023-08-07T00:25:17;13.10;99.90
33803;DHT22;20110;53.120;5.786;2023-08-07T00:27:43;13.10;99.90
33803;DHT22;20110;53.120;5.786;2023-08-07T00:30:09;13.10;99.90
33803;DHT22;20110;53.120;5.786;2023-08-07T00:32:37;13.10;99.90
33803;DHT22;20110;53.120;5.786;2023-08-07T00:35:04;13.10;99.90
33803;DHT22;20110;53.120;5.786;2023-08-07T00:37:31;13.10;99.90
33803;DHT22;20110;53.120;5.786;2023-08-07T00:39:57;13.20;99.90
33803;DHT22;20110;53.120;5.786;2023-08-07T00:42:22;13.20;99.90
33803;DHT22;20110;53.120;5.786;2023-08-07T00:44:49;13.20;99.90
33803;DHT22;20110;53.120;5.786;2023-08-07T00:47:14;13.20;99.90
33803;DHT22;20110;53.120;5.786;2023-08-07T00:49:40;13.20;99.90
33803;DHT22;20110;53.120;5.786;2023-08-07T00:52:07;13.20;99.90
33803;DHT22;20110;53.120;5.786;2023-08-07T00:54:35;13.20;99.90
33803;DHT22;20110;53.120;5.786;2023-08-07T00:57:12;13.20;99.90
33803;DHT22;20110;53.120;5.786;2023-08-07T00:59:40;13.30;99.90
33803;DHT22;20110;53.120;5.786;2023-08-07T01:02:07;13.30;99.90
33803;DHT22;20110;53.120;5.786;2023-08-07T01:04:34;13.20;99.90
33803;DHT22;20110;53.120;5.786;2023-08-07T01:07:00;13.20;99.90
33803;DHT22;20110;53.120;5.786;2023-08-07T01:09:27;13.10;99.90
33803;DHT22;20110;53.120;5.786;2023-08-07T01:12:15;13.00;99.90
33803;DHT22;20110;53.120;5.786;2023-08-07T01:15:01;13.00;99.90
33803;DHT22;20110;53.120;5.786;2023-08-07T01:17:34;13.00;99.90
33803;DHT22;20110;53.120;5.786;2023-08-07T01:20:00;12.90;99.90
33803;DHT22;20110;53.120;5.786;2023-08-07T01:22:27;12.80;99.90
33803;DHT22;20110;53.120;5.786;2023-08-07T01:24:53;12.80;99.90
33803;DHT22;20110;53.120;5.786;2023-08-07T01:35:39;12.70;99.90
33803;DHT22;20110;53.120;5.786;2023-08-07T01:38:11;12.60;99.90
33803;DHT22;20110;53.120;5.786;2023-08-07T01:40:39;12.60;99.90
33803;DHT22;20110;53.120;5.786;2023-08-07T01:43:07;12.60;99.90
33803;DHT22;20110;53.120;5.786;2023-08-07T01:45:34;12.60;99.90
33803;DHT22;20110;53.120;5.786;2023-08-07T01:48:00;12.60;99.90
33803;DHT22;20110;53.120;5.786;2023-08-07T01:50:26;12.50;99.90
33803;DHT22;20110;53.120;5.786;2023-08-07T01:52:52;12.50;99.90
33803;DHT22;20110;53.120;5.786;2023-08-07T01:55:19;12.40;99.90
33803;DHT22;20110;53.120;5.786;2023-08-07T01:57:46;12.40;99.90
33803;DHT22;20110;53.120;5.786;2023-08-07T02:00:12;12.40;99.90
33803;DHT22;20110;53.120;5.786;2023-08-07T02:02:38;12.30;99.90
33803;DHT22;20110;53.120;5.786;2023-08-07T02:05:05;12.30;99.90
33803;DHT22;20110;53.120;5.786;2023-08-07T02:07:31;12.30;99.90
33803;DHT22;20110;53.120;5.786;2023-08-07T02:09:57;12.30;99.90
33803;DHT22;20110;53.120;5.786;2023-08-07T02:12:23;12.30;99.90
33803;DHT22;20110;53.120;5.786;2023-08-07T02:14:53;12.20;99.90
33803;DHT22;20110;53.120;5.786;2023-08-07T02:17:21;12.20;99.90
33803;DHT22;20110;53.120;5.786;2023-08-07T02:19:49;12.20;99.90
33803;DHT22;20110;53.120;5.786;2023-08-07T02:22:15;12.20;99.90
33803;DHT22;20110;53.120;5.786;2023-08-07T02:24:42;12.20;99.90
33803;DHT22;20110;53.120;5.786;2023-08-07T02:27:07;12.20;99.90
33803;DHT22;20110;53.120;5.786;2023-08-07T02:29:33;12.20;99.90
33803;DHT22;20110;53.120;5.786;2023-08-07T02:32:03;12.20;99.90
33803;DHT22;20110;53.120;5.786;2023-08-07T02:34:30;12.30;99.90
33803;DHT22;20110;53.120;5.786;2023-08-07T02:36:56;12.40;99.90
33803;DHT22;20110;53.120;5.786;2023-08-07T02:39:22;12.40;99.90
33803;DHT22;20110;53.120;5.786;2023-08-07T02:41:48;12.50;99.90
33803;DHT22;20110;53.120;5.786;2023-08-07T02:44:14;12.50;99.90
33803;DHT22;20110;53.120;5.786;2023-08-07T02:46:40;12.50;99.90
33803;DHT22;20110;53.120;5.786;2023-08-07T02:49:05;12.50;99.90
33803;DHT22;20110;53.120;5.786;2023-08-07T02:51:32;12.60;99.90
33803;DHT22;20110;53.120;5.786;2023-08-07T02:53:58;12.60;99.90
33803;DHT22;20110;53.120;5.786;2023-08-07T02:56:24;12.70;99.90
33803;DHT22;20110;53.120;5.786;2023-08-07T02:58:49;12.80;99.90
33803;DHT22;20110;53.120;5.786;2023-08-07T03:01:15;12.80;99.90
33803;DHT22;20110;53.120;5.786;2023-08-07T03:03:41;12.90;99.90
33803;DHT22;20110;53.120;5.786;2023-08-07T03:06:07;12.90;99.90
33803;DHT22;20110;53.120;5.786;2023-08-07T03:08:33;13.00;99.90
33803;DHT22;20110;53.120;5.786;2023-08-07T03:10:59;13.00;99.90
33803;DHT22;20110;53.120;5.786;2023-08-07T03:13:25;12.90;99.90
33803;DHT22;20110;53.120;5.786;2023-08-07T03:15:59;12.90;99.90
33803;DHT22;20110;53.120;5.786;2023-08-07T03:18:26;12.80;99.90
33803;DHT22;20110;53.120;5.786;2023-08-07T03:20:52;12.70;99.90
33803;DHT22;20110;53.120;5.786;2023-08-07T03:23:19;12.70;99.90
33803;DHT22;20110;53.120;5.786;2023-08-07T03:25:45;12.70;99.90
33803;DHT22;20110;53.120;5.786;2023-08-07T03:28:10;12.70;99.90
33803;DHT22;20110;53.120;5.786;2023-08-07T03:30:36;12.60;99.90
33803;DHT22;20110;53.120;5.786;2023-08-07T03:33:03;12.60;99.90
33803;DHT22;20110;53.120;5.786;2023-08-07T03:35:30;12.60;99.90
33803;DHT22;20110;53.120;5.786;2023-08-07T03:37:55;12.60;99.90
33803;DHT22;20110;53.120;5.786;2023-08-07T03:40:21;12.60;99.90
33803;DHT22;20110;53.120;5.786;2023-08-07T03:42:47;12.60;99.90
33803;DHT22;20110;53.120;5.786;2023-08-07T03:45:13;12.50;99.90
33803;DHT22;20110;53.120;5.786;2023-08-07T03:47:39;12.50;99.90
33803;DHT22;20110;53.120;5.786;2023-08-07T03:50:06;12.50;99.90
33803;DHT22;20110;53.120;5.786;2023-08-07T03:52:32;12.50;99.90
33803;DHT22;20110;53.120;5.786;2023-08-07T03:54:58;12.50;99.90
33803;DHT22;20110;53.120;5.786;2023-08-07T03:57:24;12.60;99.90
33803;DHT22;20110;53.120;5.786;2023-08-07T03:59:50;12.60;99.90
33803;DHT22;20110;53.120;5.786;2023-08-07T04:02:16;12.70;99.90
33803;DHT22;20110;53.120;5.786;2023-08-07T04:04:42;12.70;99.90
33803;DHT22;20110;53.120;5.786;2023-08-07T04:07:08;12.70;99.90
33803;DHT22;20110;53.120;5.786;2023-08-07T04:09:33;12.70;99.90
33803;DHT22;20110;53.120;5.786;2023-08-07T04:11:59;12.60;99.90
33803;DHT22;20110;53.120;5.786;2023-08-07T04:14:26;12.60;99.90
33803;DHT22;20110;53.120;5.786;2023-08-07T04:16:51;12.60;99.90
33803;DHT22;20110;53.120;5.786;2023-08-07T04:19:18;12.60;99.90
33803;DHT22;20110;53.120;5.786;2023-08-07T04:21:44;12.50;99.90
33803;DHT22;20110;53.120;5.786;2023-08-07T04:24:10;12.50;99.90
33803;DHT22;20110;53.120;5.786;2023-08-07T04:26:39;12.50;99.90
33803;DHT22;20110;53.120;5.786;2023-08-07T04:29:06;12.50;99.90
33803;DHT22;20110;53.120;5.786;2023-08-07T04:31:32;12.50;99.90
33803;DHT22;20110;53.120;5.786;2023-08-07T04:33:58;12.50;99.90
33803;DHT22;20110;53.120;5.786;2023-08-07T04:36:24;12.40;99.90
33803;DHT22;20110;53.120;5.786;2023-08-07T04:38:50;12.50;99.90
33803;DHT22;20110;53.120;5.786;2023-08-07T04:41:16;12.40;99.90
33803;DHT22;20110;53.120;5.786;2023-08-07T04:43:42;12.40;99.90
33803;DHT22;20110;53.120;5.786;2023-08-07T04:46:09;12.30;99.90
33803;DHT22;20110;53.120;5.786;2023-08-07T04:48:36;12.40;99.90
33803;DHT22;20110;53.120;5.786;2023-08-07T04:51:02;12.40;99.90
33803;DHT22;20110;53.120;5.786;2023-08-07T04:53:28;12.40;99.90
33803;DHT22;20110;53.120;5.786;2023-08-07T04:55:54;12.30;99.90
33803;DHT22;20110;53.120;5.786;2023-08-07T04:58:20;12.40;99.90
33803;DHT22;20110;53.120;5.786;2023-08-07T05:00:46;12.40;99.90
33803;DHT22;20110;53.120;5.786;2023-08-07T05:03:12;12.50;99.90
33803;DHT22;20110;53.120;5.786;2023-08-07T05:05:38;12.50;99.90
33803;DHT22;20110;53.120;5.786;2023-08-07T05:08:04;12.50;99.90
33803;DHT22;20110;53.120;5.786;2023-08-07T05:10:30;12.30;99.90
33803;DHT22;20110;53.120;5.786;2023-08-07T05:12:56;12.60;99.90
33803;DHT22;20110;53.120;5.786;2023-08-07T05:15:25;12.70;99.90
33803;DHT22;20110;53.120;5.786;2023-08-07T05:17:52;12.70;99.90
33803;DHT22;20110;53.120;5.786;2023-08-07T05:20:18;12.90;99.90
33803;DHT22;20110;53.120;5.786;2023-08-07T05:22:44;12.90;99.90
33803;DHT22;20110;53.120;5.786;2023-08-07T05:25:10;13.00;99.90
33803;DHT22;20110;53.120;5.786;2023-08-07T05:27:37;13.00;99.90
33803;DHT22;20110;53.120;5.786;2023-08-07T05:30:05;13.00;99.90
33803;DHT22;20110;53.120;5.786;2023-08-07T05:32:31;12.90;99.90
33803;DHT22;20110;53.120;5.786;2023-08-07T05:34:58;13.00;99.90
33803;DHT22;20110;53.120;5.786;2023-08-07T05:37:24;13.10;99.90
33803;DHT22;20110;53.120;5.786;2023-08-07T05:39:49;13.10;99.90
33803;DHT22;20110;53.120;5.786;2023-08-07T05:42:15;13.10;99.90
33803;DHT22;20110;53.120;5.786;2023-08-07T05:44:41;13.20;99.90
33803;DHT22;20110;53.120;5.786;2023-08-07T05:47:07;13.20;99.90
33803;DHT22;20110;53.120;5.786;2023-08-07T05:49:33;13.30;99.90
33803;DHT22;20110;53.120;5.786;2023-08-07T05:51:59;13.30;99.90
33803;DHT22;20110;53.120;5.786;2023-08-07T05:54:24;13.30;99.90
33803;DHT22;20110;53.120;5.786;2023-08-07T05:56:50;13.40;99.90
33803;DHT22;20110;53.120;5.786;2023-08-07T05:59:16;13.40;99.90
33803;DHT22;20110;53.120;5.786;2023-08-07T06:01:42;13.30;99.90
33803;DHT22;20110;53.120;5.786;2023-08-07T06:04:08;13.30;99.90
33803;DHT22;20110;53.120;5.786;2023-08-07T06:06:34;13.30;99.90
33803;DHT22;20110;53.120;5.786;2023-08-07T06:09:01;13.40;99.90
33803;DHT22;20110;53.120;5.786;2023-08-07T06:11:29;13.40;99.90
33803;DHT22;20110;53.120;5.786;2023-08-07T06:13:54;13.40;99.90
33803;DHT22;20110;53.120;5.786;2023-08-07T06:16:20;13.40;99.90
33803;DHT22;20110;53.120;5.786;2023-08-07T06:18:46;13.40;99.90
33803;DHT22;20110;53.120;5.786;2023-08-07T06:21:12;13.50;99.90
33803;DHT22;20110;53.120;5.786;2023-08-07T06:23:38;13.60;99.90
33803;DHT22;20110;53.120;5.786;2023-08-07T06:26:04;13.60;99.90
33803;DHT22;20110;53.120;5.786;2023-08-07T06:28:33;13.70;99.90
33803;DHT22;20110;53.120;5.786;2023-08-07T06:31:04;13.80;99.90
33803;DHT22;20110;53.120;5.786;2023-08-07T06:33:32;13.90;99.90
33803;DHT22;20110;53.120;5.786;2023-08-07T06:36:02;14.10;99.90
33803;DHT22;20110;53.120;5.786;2023-08-07T06:38:29;14.20;99.90
33803;DHT22;20110;53.120;5.786;2023-08-07T06:40:56;14.20;99.90
33803;DHT22;20110;53.120;5.786;2023-08-07T06:43:21;14.20;99.90
33803;DHT22;20110;53.120;5.786;2023-08-07T06:45:51;14.30;99.90
33803;DHT22;20110;53.120;5.786;2023-08-07T06:48:20;14.50;99.90
33803;DHT22;20110;53.120;5.786;2023-08-07T06:50:47;14.50;99.90
33803;DHT22;20110;53.120;5.786;2023-08-07T06:53:14;14.30;99.90
33803;DHT22;20110;53.120;5.786;2023-08-07T06:55:41;13.50;99.90
33803;DHT22;20110;53.120;5.786;2023-08-07T06:58:07;12.80;99.90
33803;DHT22;20110;53.120;5.786;2023-08-07T07:00:34;12.50;99.90
33803;DHT22;20110;53.120;5.786;2023-08-07T07:03:01;12.40;99.90
33803;DHT22;20110;53.120;5.786;2023-08-07T07:05:27;12.40;99.90
33803;DHT22;20110;53.120;5.786;2023-08-07T07:07:54;12.60;99.90
33803;DHT22;20110;53.120;5.786;2023-08-07T07:10:20;12.70;99.90
33803;DHT22;20110;53.120;5.786;2023-08-07T07:12:46;12.70;99.90
33803;DHT22;20110;53.120;5.786;2023-08-07T07:15:12;12.60;99.90
33803;DHT22;20110;53.120;5.786;2023-08-07T07:17:38;12.60;99.90
33803;DHT22;20110;53.120;5.786;2023-08-07T07:20:05;12.70;99.90
33803;DHT22;20110;53.120;5.786;2023-08-07T07:22:31;12.80;99.90
33803;DHT22;20110;53.120;5.786;2023-08-07T07:24:57;12.90;99.90
33803;DHT22;20110;53.120;5.786;2023-08-07T07:27:22;13.10;99.90
33803;DHT22;20110;53.120;5.786;2023-08-07T07:29:51;13.20;99.90
33803;DHT22;20110;53.120;5.786;2023-08-07T07:32:17;13.20;99.90
33803;DHT22;20110;53.120;5.786;2023-08-07T07:34:45;13.40;99.90
33803;DHT22;20110;53.120;5.786;2023-08-07T07:37:11;13.40;99.90
33803;DHT22;20110;53.120;5.786;2023-08-07T07:39:39;13.00;99.90
33803;DHT22;20110;53.120;5.786;2023-08-07T07:42:06;12.50;99.90
33803;DHT22;20110;53.120;5.786;2023-08-07T07:44:33;12.30;99.90
33803;DHT22;20110;53.120;5.786;2023-08-07T07:47:00;12.30;99.90
33803;DHT22;20110;53.120;5.786;2023-08-07T07:49:26;12.30;99.90
33803;DHT22;20110;53.120;5.786;2023-08-07T07:51:52;12.40;99.90
33803;DHT22;20110;53.120;5.786;2023-08-07T07:54:18;12.60;99.90
33803;DHT22;20110;53.120;5.786;2023-08-07T07:56:44;12.70;99.90
33803;DHT22;20110;53.120;5.786;2023-08-07T07:59:11;12.70;99.90
33803;DHT22;20110;53.120;5.786;2023-08-07T08:01:37;12.80;99.90
33803;DHT22;20110;53.120;5.786;2023-08-07T08:04:04;12.80;99.90
33803;DHT22;20110;53.120;5.786;2023-08-07T08:06:30;12.80;99.90
33803;DHT22;20110;53.120;5.786;2023-08-07T08:08:56;12.90;99.90
33803;DHT22;20110;53.120;5.786;2023-08-07T08:11:22;13.00;99.90
33803;DHT22;20110;53.120;5.786;2023-08-07T08:13:48;13.30;99.90
33803;DHT22;20110;53.120;5.786;2023-08-07T08:16:14;13.50;99.90
33803;DHT22;20110;53.120;5.786;2023-08-07T08:18:40;13.50;99.90
33803;DHT22;20110;53.120;5.786;2023-08-07T08:21:06;13.30;99.90
33803;DHT22;20110;53.120;5.786;2023-08-07T08:23:32;13.30;99.90
33803;DHT22;20110;53.120;5.786;2023-08-07T08:25:58;13.40;99.90
33803;DHT22;20110;53.120;5.786;2023-08-07T08:28:24;13.50;99.90
33803;DHT22;20110;53.120;5.786;2023-08-07T08:30:50;13.70;99.90
33803;DHT22;20110;53.120;5.786;2023-08-07T08:33:15;14.00;1.00
33803;DHT22;20110;53.120;5.786;2023-08-07T08:35:44;14.00;99.90
33803;DHT22;20110;53.120;5.786;2023-08-07T08:38:10;14.10;99.90
33803;DHT22;20110;53.120;5.786;2023-08-07T08:40:38;14.10;99.90
33803;DHT22;20110;53.120;5.786;2023-08-07T08:43:05;14.30;99.90
33803;DHT22;20110;53.120;5.786;2023-08-07T08:45:32;14.60;99.90
33803;DHT22;20110;53.120;5.786;2023-08-07T08:48:03;15.00;1.00
33803;DHT22;20110;53.120;5.786;2023-08-07T08:50:32;15.10;35.50
33803;DHT22;20110;53.120;5.786;2023-08-07T08:52:59;15.20;1.00
33803;DHT22;20110;53.120;5.786;2023-08-07T08:55:26;15.10;99.90
33803;DHT22;20110;53.120;5.786;2023-08-07T08:57:53;15.20;99.90
33803;DHT22;20110;53.120;5.786;2023-08-07T09:00:20;15.10;99.90
33803;DHT22;20110;53.120;5.786;2023-08-07T09:02:51;15.30;1.00
33803;DHT22;20110;53.120;5.786;2023-08-07T09:05:21;15.30;99.90
33803;DHT22;20110;53.120;5.786;2023-08-07T09:07:47;15.20;99.90
33803;DHT22;20110;53.120;5.786;2023-08-07T09:10:15;15.30;99.90
33803;DHT22;20110;53.120;5.786;2023-08-07T09:13:01;15.30;54.20
33803;DHT22;20110;53.120;5.786;2023-08-07T09:15:32;15.30;59.90
33803;DHT22;20110;53.120;5.786;2023-08-07T09:17:59;15.40;99.90
33803;DHT22;20110;53.120;5.786;2023-08-07T09:20:26;15.40;99.90
33803;DHT22;20110;53.120;5.786;2023-08-07T09:22:52;15.50;99.90
33803;DHT22;20110;53.120;5.786;2023-08-07T09:25:28;15.60;99.90
33803;DHT22;20110;53.120;5.786;2023-08-07T09:27:57;15.60;1.00
33803;DHT22;20110;53.120;5.786;2023-08-07T09:30:27;15.90;36.40
33803;DHT22;20110;53.120;5.786;2023-08-07T09:32:56;16.10;99.90
33803;DHT22;20110;53.120;5.786;2023-08-07T09:35:23;16.10;99.90
33803;DHT22;20110;53.120;5.786;2023-08-07T09:37:49;16.00;99.90
33803;DHT22;20110;53.120;5.786;2023-08-07T09:40:15;15.70;99.90
33803;DHT22;20110;53.120;5.786;2023-08-07T09:42:42;15.70;99.90
33803;DHT22;20110;53.120;5.786;2023-08-07T09:45:29;15.50;1.00
33803;DHT22;20110;53.120;5.786;2023-08-07T09:48:03;15.40;99.90
33803;DHT22;20110;53.120;5.786;2023-08-07T09:50:32;15.40;1.00
33803;DHT22;20110;53.120;5.786;2023-08-07T09:52:58;15.50;99.90
33803;DHT22;20110;53.120;5.786;2023-08-07T09:55:24;15.30;14.90
33803;DHT22;20110;53.120;5.786;2023-08-07T09:57:51;15.30;1.00
33803;DHT22;20110;53.120;5.786;2023-08-07T10:00:18;15.30;1.00
33803;DHT22;20110;53.120;5.786;2023-08-07T10:02:48;15.50;99.10
33803;DHT22;20110;53.120;5.786;2023-08-07T10:05:16;15.90;26.20
33803;DHT22;20110;53.120;5.786;2023-08-07T10:07:42;16.30;99.90
33803;DHT22;20110;53.120;5.786;2023-08-07T10:10:09;16.40;1.00
33803;DHT22;20110;53.120;5.786;2023-08-07T10:12:39;16.40;99.90
33803;DHT22;20110;53.120;5.786;2023-08-07T10:15:06;16.70;99.90
33803;DHT22;20110;53.120;5.786;2023-08-07T10:17:33;16.90;99.90
33803;DHT22;20110;53.120;5.786;2023-08-07T10:19:59;16.90;99.90
33803;DHT22;20110;53.120;5.786;2023-08-07T10:22:27;17.50;99.90
33803;DHT22;20110;53.120;5.786;2023-08-07T10:24:57;17.80;99.90
33803;DHT22;20110;53.120;5.786;2023-08-07T10:27:27;17.40;99.90
33803;DHT22;20110;53.120;5.786;2023-08-07T10:29:57;17.00;99.90
33803;DHT22;20110;53.120;5.786;2023-08-07T10:32:25;17.30;99.90
33803;DHT22;20110;53.120;5.786;2023-08-07T10:34:53;17.80;99.90
33803;DHT22;20110;53.120;5.786;2023-08-07T10:37:42;18.50;99.90
33803;DHT22;20110;53.120;5.786;2023-08-07T10:40:10;18.40;99.90
33803;DHT22;20110;53.120;5.786;2023-08-07T10:42:59;17.70;99.90
33803;DHT22;20110;53.120;5.786;2023-08-07T10:45:37;18.30;99.90
33803;DHT22;20110;53.120;5.786;2023-08-07T10:48:07;18.10;99.90
33803;DHT22;20110;53.120;5.786;2023-08-07T10:50:50;18.30;99.90
33803;DHT22;20110;53.120;5.786;2023-08-07T10:53:29;17.80;99.90
33803;DHT22;20110;53.120;5.786;2023-08-07T10:55:57;17.40;99.90
33803;DHT22;20110;53.120;5.786;2023-08-07T10:58:30;18.10;1.00
33803;DHT22;20110;53.120;5.786;2023-08-07T11:01:21;18.00;1.00
33803;DHT22;20110;53.120;5.786;2023-08-07T11:03:51;17.60;1.00
33803;DHT22;20110;53.120;5.786;2023-08-07T11:06:22;17.30;99.90
33803;DHT22;20110;53.120;5.786;2023-08-07T11:08:55;17.20;99.90
33803;DHT22;20110;53.120;5.786;2023-08-07T11:11:21;17.30;99.90
33803;DHT22;20110;53.120;5.786;2023-08-07T11:13:47;17.30;99.90
33803;DHT22;20110;53.120;5.786;2023-08-07T11:16:13;17.20;1.00
33803;DHT22;20110;53.120;5.786;2023-08-07T11:18:39;17.40;1.00
33803;DHT22;20110;53.120;5.786;2023-08-07T11:21:09;17.70;99.90
33803;DHT22;20110;53.120;5.786;2023-08-07T11:23:40;17.70;99.90
33803;DHT22;20110;53.120;5.786;2023-08-07T11:26:08;17.60;99.90
33803;DHT22;20110;53.120;5.786;2023-08-07T11:28:34;17.30;99.90
33803;DHT22;20110;53.120;5.786;2023-08-07T11:31:01;17.00;99.90
33803;DHT22;20110;53.120;5.786;2023-08-07T11:33:27;16.80;99.90
33803;DHT22;20110;53.120;5.786;2023-08-07T11:35:54;16.30;99.90
33803;DHT22;20110;53.120;5.786;2023-08-07T11:38:43;15.80;99.90
33803;DHT22;20110;53.120;5.786;2023-08-07T11:41:14;15.30;99.90
33803;DHT22;20110;53.120;5.786;2023-08-07T11:43:42;15.00;99.90
33803;DHT22;20110;53.120;5.786;2023-08-07T11:46:10;14.80;1.00
33803;DHT22;20110;53.120;5.786;2023-08-07T11:48:38;14.90;89.80
33803;DHT22;20110;53.120;5.786;2023-08-07T11:51:06;15.30;98.10
33803;DHT22;20110;53.120;5.786;2023-08-07T11:53:34;16.00;99.90
33803;DHT22;20110;53.120;5.786;2023-08-07T11:56:07;16.30;81.50
33803;DHT22;20110;53.120;5.786;2023-08-07T11:58:44;16.60;1.00
33803;DHT22;20110;53.120;5.786;2023-08-07T12:01:15;16.50;1.00
33803;DHT22;20110;53.120;5.786;2023-08-07T12:06:37;16.30;1.00
33803;DHT22;20110;53.120;5.786;2023-08-07T12:09:07;15.90;99.90
33803;DHT22;20110;53.120;5.786;2023-08-07T12:11:38;15.30;1.00
33803;DHT22;20110;53.120;5.786;2023-08-07T12:14:04;15.00;99.90
33803;DHT22;20110;53.120;5.786;2023-08-07T12:16:34;15.10;99.90
33803;DHT22;20110;53.120;5.786;2023-08-07T12:19:01;15.40;99.90
33803;DHT22;20110;53.120;5.786;2023-08-07T12:21:29;15.80;93.20
33803;DHT22;20110;53.120;5.786;2023-08-07T12:23:59;16.30;99.90
33803;DHT22;20110;53.120;5.786;2023-08-07T12:26:25;16.80;99.90
33803;DHT22;20110;53.120;5.786;2023-08-07T12:28:51;16.70;1.00
33803;DHT22;20110;53.120;5.786;2023-08-07T12:31:18;17.20;1.20
33803;DHT22;20110;53.120;5.786;2023-08-07T12:33:44;17.20;99.90
33803;DHT22;20110;53.120;5.786;2023-08-07T12:36:10;17.50;1.00
33803;DHT22;20110;53.120;5.786;2023-08-07T12:38:38;17.40;99.90
33803;DHT22;20110;53.120;5.786;2023-08-07T12:41:04;17.70;1.00
33803;DHT22;20110;53.120;5.786;2023-08-07T12:43:30;17.50;99.90
33803;DHT22;20110;53.120;5.786;2023-08-07T12:45:56;17.60;1.00
33803;DHT22;20110;53.120;5.786;2023-08-07T12:48:22;17.80;99.90
33803;DHT22;20110;53.120;5.786;2023-08-07T12:50:47;17.70;1.00
33803;DHT22;20110;53.120;5.786;2023-08-07T12:53:13;17.70;1.00
33803;DHT22;20110;53.120;5.786;2023-08-07T12:55:39;17.80;1.00
33803;DHT22;20110;53.120;5.786;2023-08-07T12:58:05;17.80;27.90
33803;DHT22;20110;53.120;5.786;2023-08-07T13:00:31;17.40;65.10
33803;DHT22;20110;53.120;5.786;2023-08-07T13:02:57;17.40;91.40
33803;DHT22;20110;53.120;5.786;2023-08-07T13:05:24;17.50;66.40
33803;DHT22;20110;53.120;5.786;2023-08-07T13:07:50;17.40;5.00
33803;DHT22;20110;53.120;5.786;2023-08-07T13:10:19;17.50;18.40
33803;DHT22;20110;53.120;5.786;2023-08-07T13:12:47;17.40;1.00
33803;DHT22;20110;53.120;5.786;2023-08-07T13:15:15;17.80;1.00
33803;DHT22;20110;53.120;5.786;2023-08-07T13:17:43;18.10;1.00
33803;DHT22;20110;53.120;5.786;2023-08-07T13:20:11;18.00;1.00
33803;DHT22;20110;53.120;5.786;2023-08-07T13:22:39;17.40;1.00
33803;DHT22;20110;53.120;5.786;2023-08-07T13:25:07;17.10;1.00
33803;DHT22;20110;53.120;5.786;2023-08-07T13:27:34;17.40;1.00
33803;DHT22;20110;53.120;5.786;2023-08-07T13:30:01;17.40;1.00
33803;DHT22;20110;53.120;5.786;2023-08-07T13:32:28;17.00;1.00
33803;DHT22;20110;53.120;5.786;2023-08-07T13:34:54;16.60;1.00
33803;DHT22;20110;53.120;5.786;2023-08-07T13:37:21;16.30;1.00
33803;DHT22;20110;53.120;5.786;2023-08-07T13:39:48;16.40;99.90
33803;DHT22;20110;53.120;5.786;2023-08-07T13:42:17;16.20;99.90
33803;DHT22;20110;53.120;5.786;2023-08-07T13:44:43;16.30;99.90
33803;DHT22;20110;53.120;5.786;2023-08-07T13:47:09;16.30;1.00
33803;DHT22;20110;53.120;5.786;2023-08-07T13:49:36;16.20;1.00
33803;DHT22;20110;53.120;5.786;2023-08-07T13:52:03;16.40;99.90
33803;DHT22;20110;53.120;5.786;2023-08-07T13:54:29;16.40;99.90
33803;DHT22;20110;53.120;5.786;2023-08-07T13:56:55;16.10;99.90
33803;DHT22;20110;53.120;5.786;2023-08-07T13:59:21;16.20;1.00
33803;DHT22;20110;53.120;5.786;2023-08-07T14:01:47;16.40;1.00
33803;DHT22;20110;53.120;5.786;2023-08-07T14:04:13;16.70;1.00
33803;DHT22;20110;53.120;5.786;2023-08-07T14:06:40;16.80;1.00
33803;DHT22;20110;53.120;5.786;2023-08-07T14:09:10;16.80;1.00
33803;DHT22;20110;53.120;5.786;2023-08-07T14:11:37;16.80;1.00
33803;DHT22;20110;53.120;5.786;2023-08-07T14:14:03;16.80;1.00
33803;DHT22;20110;53.120;5.786;2023-08-07T14:16:29;16.70;99.90
33803;DHT22;20110;53.120;5.786;2023-08-07T14:18:56;16.40;1.00
33803;DHT22;20110;53.120;5.786;2023-08-07T14:21:23;16.10;99.90
33803;DHT22;20110;53.120;5.786;2023-08-07T14:23:49;15.80;99.90
33803;DHT22;20110;53.120;5.786;2023-08-07T14:26:16;15.90;1.00
33803;DHT22;20110;53.120;5.786;2023-08-07T14:28:43;15.90;99.90
33803;DHT22;20110;53.120;5.786;2023-08-07T14:31:09;16.20;99.90
33803;DHT22;20110;53.120;5.786;2023-08-07T14:33:36;16.40;99.90
33803;DHT22;20110;53.120;5.786;2023-08-07T14:36:04;16.20;99.90
33803;DHT22;20110;53.120;5.786;2023-08-07T14:38:31;16.10;99.90
33803;DHT22;20110;53.120;5.786;2023-08-07T14:40:57;16.00;99.90
33803;DHT22;20110;53.120;5.786;2023-08-07T14:43:29;16.00;99.90
33803;DHT22;20110;53.120;5.786;2023-08-07T14:45:56;15.90;99.90
33803;DHT22;20110;53.120;5.786;2023-08-07T14:48:23;15.80;99.90
33803;DHT22;20110;53.120;5.786;2023-08-07T14:50:49;15.90;99.90
33803;DHT22;20110;53.120;5.786;2023-08-07T14:53:14;15.80;99.90
33803;DHT22;20110;53.120;5.786;2023-08-07T14:55:40;15.80;99.90
33803;DHT22;20110;53.120;5.786;2023-08-07T14:58:08;15.70;99.90
33803;DHT22;20110;53.120;5.786;2023-08-07T15:00:35;15.60;99.90
33803;DHT22;20110;53.120;5.786;2023-08-07T15:03:01;15.70;99.90
33803;DHT22;20110;53.120;5.786;2023-08-07T15:05:27;15.70;1.00
33803;DHT22;20110;53.120;5.786;2023-08-07T15:07:53;15.60;99.90
33803;DHT22;20110;53.120;5.786;2023-08-07T15:10:19;15.50;1.00
33803;DHT22;20110;53.120;5.786;2023-08-07T15:12:47;15.30;99.90
33803;DHT22;20110;53.120;5.786;2023-08-07T15:15:13;15.50;1.00
33803;DHT22;20110;53.120;5.786;2023-08-07T15:17:39;15.70;64.60
33803;DHT22;20110;53.120;5.786;2023-08-07T15:20:07;16.10;47.40
33803;DHT22;20110;53.120;5.786;2023-08-07T15:22:33;16.00;1.00
33803;DHT22;20110;53.120;5.786;2023-08-07T15:24:59;16.00;14.00
33803;DHT22;20110;53.120;5.786;2023-08-07T15:27:25;15.80;19.10
33803;DHT22;20110;53.120;5.786;2023-08-07T15:29:51;15.70;79.50
33803;DHT22;20110;53.120;5.786;2023-08-07T15:32:16;15.50;99.90
33803;DHT22;20110;53.120;5.786;2023-08-07T15:34:45;15.80;11.50
33803;DHT22;20110;53.120;5.786;2023-08-07T15:37:12;16.40;99.90
33803;DHT22;20110;53.120;5.786;2023-08-07T15:39:37;16.40;99.90
33803;DHT22;20110;53.120;5.786;2023-08-07T15:42:03;16.00;1.00
33803;DHT22;20110;53.120;5.786;2023-08-07T15:44:30;15.80;5.30